createdAt,value
2017-03-22T00:00:05.001Z,2.37
2017-03-22T00:01:04.297Z,2.17
2017-03-22T00:02:03.573Z,2.78
2017-03-22T00:03:02.869Z,2.33
2017-03-22T00:04:02.126Z,2.58
2017-03-22T00:05:01.407Z,2.43
2017-03-22T00:06:00.673Z,2.38
2017-03-22T00:06:59.957Z,2.58
2017-03-22T00:07:59.222Z,2.98
2017-03-22T00:08:58.515Z,2.67
2017-03-22T00:09:57.742Z,2.58
2017-03-22T00:10:57.047Z,2.87
2017-03-22T00:11:56.324Z,2.80
2017-03-22T00:12:55.578Z,2.85
2017-03-22T00:13:54.850Z,2.75
2017-03-22T00:14:54.139Z,3.33
2017-03-22T00:15:53.478Z,3.62
2017-03-22T00:16:52.738Z,3.80
2017-03-22T00:17:51.994Z,3.48
2017-03-22T00:18:51.290Z,3.25
2017-03-22T00:19:50.588Z,3.35
2017-03-22T00:20:50.219Z,3.67
2017-03-22T00:21:49.598Z,2.97
2017-03-22T00:22:48.822Z,3.20
2017-03-22T00:23:48.133Z,2.93
2017-03-22T00:24:47.473Z,3.13
2017-03-22T00:25:46.806Z,2.98
2017-03-22T00:26:46.126Z,3.00
2017-03-22T00:27:45.427Z,3.22
2017-03-22T00:28:44.726Z,2.98
2017-03-22T00:29:45.346Z,3.13
2017-03-22T00:30:44.630Z,3.40
2017-03-22T00:31:43.979Z,3.20
2017-03-22T00:32:46.683Z,3.23
2017-03-22T00:33:46.666Z,2.67
2017-03-22T00:34:46.088Z,2.67
2017-03-22T00:35:45.365Z,3.30
2017-03-22T00:36:44.634Z,2.92
2017-03-22T00:37:43.913Z,2.88
2017-03-22T00:38:43.427Z,3.02
2017-03-22T00:39:42.735Z,2.83
2017-03-22T00:40:41.965Z,2.70
2017-03-22T00:41:41.266Z,2.73
2017-03-22T00:42:40.534Z,2.95
2017-03-22T00:43:39.854Z,2.90
2017-03-22T00:44:39.153Z,3.02
2017-03-22T00:45:38.394Z,2.95
2017-03-22T00:46:37.666Z,3.05
2017-03-22T00:47:36.914Z,2.58
2017-03-22T00:48:36.172Z,2.57
2017-03-22T00:49:35.444Z,2.55
2017-03-22T00:50:34.749Z,2.92
2017-03-22T00:51:34.050Z,2.77
2017-03-22T00:52:33.371Z,2.62
2017-03-22T00:53:32.661Z,2.93
2017-03-22T00:54:31.985Z,2.63
2017-03-22T00:55:31.214Z,2.53
2017-03-22T00:56:30.760Z,3.03
2017-03-22T00:57:30.009Z,2.90
2017-03-22T00:58:29.277Z,3.50
2017-03-22T00:59:28.520Z,2.87
2017-03-22T01:00:27.889Z,2.97
2017-03-22T01:01:27.232Z,3.27
2017-03-22T01:02:26.557Z,3.00
2017-03-22T01:03:25.838Z,3.35
2017-03-22T01:04:25.095Z,3.27
2017-03-22T01:05:24.357Z,3.07
2017-03-22T01:06:23.613Z,3.52
2017-03-22T01:07:22.865Z,3.20
2017-03-22T01:08:22.192Z,3.32
2017-03-22T01:09:21.442Z,3.18
2017-03-22T01:10:20.696Z,3.13
2017-03-22T01:11:19.965Z,4.07
2017-03-22T01:12:19.317Z,3.52
2017-03-22T01:13:18.603Z,3.62
2017-03-22T01:14:18.190Z,3.67
2017-03-22T01:15:17.489Z,3.30
2017-03-22T01:16:16.761Z,3.08
2017-03-22T01:17:15.986Z,3.30
2017-03-22T01:18:15.269Z,3.82
2017-03-22T01:19:14.568Z,3.23
2017-03-22T01:20:13.897Z,3.72
2017-03-22T01:21:13.243Z,3.05
2017-03-22T01:22:12.681Z,3.55
2017-03-22T01:23:11.955Z,3.02
2017-03-22T01:24:11.345Z,3.90
2017-03-22T01:25:10.622Z,4.10
2017-03-22T01:26:10.187Z,4.00
2017-03-22T01:27:09.459Z,4.00
2017-03-22T01:28:08.832Z,3.80
2017-03-22T01:29:08.103Z,3.42
2017-03-22T01:30:07.377Z,3.85
2017-03-22T01:31:06.656Z,4.12
2017-03-22T01:32:05.935Z,4.12
2017-03-22T01:33:05.168Z,4.15
2017-03-22T01:34:04.433Z,3.28
2017-03-22T01:35:03.704Z,3.65
2017-03-22T01:36:03.047Z,3.05
2017-03-22T01:37:02.286Z,4.25
2017-03-22T01:38:01.553Z,3.83
2017-03-22T01:39:00.993Z,3.87
2017-03-22T01:40:00.308Z,4.25
2017-03-22T01:40:59.589Z,3.97
2017-03-22T01:41:58.878Z,3.62
2017-03-22T01:42:58.162Z,3.70
2017-03-22T01:43:57.738Z,4.08
2017-03-22T01:44:56.978Z,3.95
2017-03-22T01:45:56.260Z,3.90
2017-03-22T01:46:55.530Z,4.57
2017-03-22T01:47:54.774Z,4.58
2017-03-22T01:48:54.030Z,4.08
2017-03-22T01:49:53.508Z,4.40
2017-03-22T01:50:52.758Z,3.37
2017-03-22T01:51:51.998Z,3.95
2017-03-22T01:52:51.309Z,3.90
2017-03-22T01:53:50.573Z,4.08
2017-03-22T01:54:49.830Z,3.85
2017-03-22T01:55:49.129Z,3.60
2017-03-22T01:56:48.386Z,4.03
2017-03-22T01:57:47.630Z,4.07
2017-03-22T01:58:46.894Z,4.25
2017-03-22T01:59:46.169Z,3.98
2017-03-22T02:00:45.432Z,4.72
2017-03-22T02:01:45.063Z,4.52
2017-03-22T02:02:44.438Z,4.38
2017-03-22T02:03:43.706Z,4.40
2017-03-22T02:04:42.958Z,4.02
2017-03-22T02:05:42.210Z,4.03
2017-03-22T02:06:41.477Z,4.88
2017-03-22T02:07:40.774Z,4.42
2017-03-22T02:08:40.093Z,3.90
2017-03-22T02:09:39.368Z,4.83
2017-03-22T02:10:38.666Z,4.32
2017-03-22T02:11:37.960Z,5.20
2017-03-22T02:12:37.219Z,4.28
2017-03-22T02:13:36.934Z,4.77
2017-03-22T02:14:36.218Z,4.53
2017-03-22T02:15:35.465Z,4.67
2017-03-22T02:16:34.787Z,4.62
2017-03-22T02:17:34.111Z,5.30
2017-03-22T02:18:33.417Z,3.80
2017-03-22T02:19:33.015Z,5.00
2017-03-22T02:20:32.349Z,4.60
2017-03-22T02:21:31.606Z,4.93
2017-03-22T02:22:31.620Z,4.32
2017-03-22T02:23:30.904Z,4.13
2017-03-22T02:24:30.233Z,5.03
2017-03-22T02:25:29.529Z,4.88
2017-03-22T02:26:28.816Z,5.23
2017-03-22T02:27:28.098Z,4.95
2017-03-22T02:28:27.326Z,4.28
2017-03-22T02:29:26.581Z,4.70
2017-03-22T02:30:25.864Z,4.38
2017-03-22T02:31:25.413Z,4.95
2017-03-22T02:32:24.663Z,4.70
2017-03-22T02:33:23.934Z,4.65
2017-03-22T02:34:23.185Z,4.52
2017-03-22T02:35:22.489Z,3.87
2017-03-22T02:36:21.765Z,4.23
2017-03-22T02:37:21.051Z,4.65
2017-03-22T02:38:20.461Z,4.40
2017-03-22T02:39:19.737Z,4.52
2017-03-22T02:40:19.030Z,4.73
2017-03-22T02:41:18.283Z,4.72
2017-03-22T02:42:17.565Z,4.05
2017-03-22T02:43:16.866Z,4.73
2017-03-22T02:44:16.093Z,4.33
2017-03-22T02:45:15.354Z,4.25
2017-03-22T02:46:14.643Z,4.55
2017-03-22T02:47:13.925Z,3.80
2017-03-22T02:48:13.201Z,4.82
2017-03-22T02:49:12.946Z,4.67
2017-03-22T02:50:12.194Z,4.67
2017-03-22T02:51:11.460Z,4.63
2017-03-22T02:52:10.707Z,4.72
2017-03-22T02:53:09.943Z,4.58
2017-03-22T02:54:09.211Z,4.85
2017-03-22T02:55:08.513Z,4.55
2017-03-22T02:56:08.538Z,3.65
2017-03-22T02:57:07.802Z,4.20
2017-03-22T02:58:07.081Z,4.20
2017-03-22T02:59:06.342Z,4.95
2017-03-22T03:00:05.645Z,4.50
2017-03-22T03:01:04.996Z,5.50
2017-03-22T03:02:04.310Z,5.03
2017-03-22T03:03:03.547Z,4.63
2017-03-22T03:04:02.792Z,4.33
2017-03-22T03:05:02.045Z,5.10
2017-03-22T03:06:01.293Z,5.47
2017-03-22T03:07:00.594Z,4.25
2017-03-22T03:07:59.837Z,4.90
2017-03-22T03:08:59.127Z,6.03
2017-03-22T03:09:58.391Z,4.87
2017-03-22T03:10:57.622Z,5.37
2017-03-22T03:11:56.909Z,5.47
2017-03-22T03:12:56.643Z,5.88
2017-03-22T03:13:55.938Z,5.23
2017-03-22T03:14:55.228Z,5.85
2017-03-22T03:15:54.525Z,6.57
2017-03-22T03:16:53.798Z,6.15
2017-03-22T03:17:53.062Z,5.75
2017-03-22T03:18:52.398Z,5.52
2017-03-22T03:19:51.663Z,6.13
2017-03-22T03:20:50.927Z,6.08
2017-03-22T03:21:50.206Z,6.90
2017-03-22T03:22:49.492Z,5.48
2017-03-22T03:23:48.766Z,6.15
2017-03-22T03:24:48.053Z,6.08
2017-03-22T03:25:47.364Z,6.57
2017-03-22T03:26:46.631Z,6.52
2017-03-22T03:27:45.907Z,5.93
2017-03-22T03:28:45.202Z,6.83
2017-03-22T03:29:44.505Z,5.90
2017-03-22T03:30:44.077Z,6.33
2017-03-22T03:31:43.345Z,6.27
2017-03-22T03:32:42.625Z,5.80
2017-03-22T03:33:41.894Z,5.47
2017-03-22T03:34:41.153Z,5.78
2017-03-22T03:35:40.455Z,6.50
2017-03-22T03:36:39.769Z,5.98
2017-03-22T03:37:39.023Z,6.98
2017-03-22T03:38:38.333Z,6.82
2017-03-22T03:39:37.591Z,6.28
2017-03-22T03:40:36.858Z,5.47
2017-03-22T03:41:36.146Z,5.85
2017-03-22T03:42:35.514Z,5.38
2017-03-22T03:43:34.913Z,5.63
2017-03-22T03:44:34.181Z,5.97
2017-03-22T03:45:34.290Z,6.22
2017-03-22T03:46:33.518Z,5.40
2017-03-22T03:47:32.841Z,5.70
2017-03-22T03:48:32.227Z,6.90
2017-03-22T03:49:31.497Z,5.92
2017-03-22T03:50:30.728Z,5.57
2017-03-22T03:51:30.041Z,6.10
2017-03-22T03:52:29.298Z,5.77
2017-03-22T03:53:28.544Z,6.78
2017-03-22T03:54:28.041Z,5.18
2017-03-22T03:55:27.310Z,5.18
2017-03-22T03:56:26.585Z,6.85
2017-03-22T03:57:25.844Z,5.68
2017-03-22T03:58:25.126Z,6.02
2017-03-22T03:59:24.370Z,5.78
2017-03-22T04:00:23.694Z,5.87
2017-03-22T04:01:22.972Z,6.18
2017-03-22T04:02:22.228Z,5.30
2017-03-22T04:03:21.540Z,5.40
2017-03-22T04:04:21.089Z,5.65
2017-03-22T04:05:20.365Z,6.37
2017-03-22T04:06:19.684Z,6.13
2017-03-22T04:07:19.006Z,6.88
2017-03-22T04:08:18.284Z,5.82
2017-03-22T04:09:17.591Z,5.97
2017-03-22T04:10:16.905Z,6.80
2017-03-22T04:11:16.883Z,6.60
2017-03-22T04:12:16.154Z,6.38
2017-03-22T04:13:16.145Z,6.32
2017-03-22T04:14:16.142Z,6.10
2017-03-22T04:15:15.405Z,6.38
2017-03-22T04:16:14.692Z,6.53
2017-03-22T04:17:13.959Z,6.75
2017-03-22T04:18:13.505Z,7.08
2017-03-22T04:19:12.810Z,6.75
2017-03-22T04:20:12.071Z,7.20
2017-03-22T04:21:11.359Z,6.68
2017-03-22T04:22:10.632Z,7.15
2017-03-22T04:23:09.918Z,7.32
2017-03-22T04:24:09.193Z,6.93
2017-03-22T04:25:08.444Z,6.32
2017-03-22T04:26:07.747Z,6.40
2017-03-22T04:27:07.018Z,7.32
2017-03-22T04:28:06.284Z,6.95
2017-03-22T04:29:05.566Z,6.83
2017-03-22T04:30:04.853Z,7.45
2017-03-22T04:31:04.104Z,7.33
2017-03-22T04:32:03.438Z,8.33
2017-03-22T04:33:02.686Z,7.67
2017-03-22T04:34:01.945Z,6.88
2017-03-22T04:35:01.240Z,7.28
2017-03-22T04:36:00.844Z,7.43
2017-03-22T04:37:00.098Z,7.62
2017-03-22T04:37:59.325Z,7.60
2017-03-22T04:38:58.574Z,7.47
2017-03-22T04:39:57.861Z,6.65
2017-03-22T04:40:57.098Z,6.67
2017-03-22T04:41:56.387Z,6.57
2017-03-22T04:42:55.633Z,7.52
2017-03-22T04:43:54.885Z,7.12
2017-03-22T04:44:54.901Z,6.93
2017-03-22T04:45:54.182Z,7.13
2017-03-22T04:46:54.155Z,6.62
2017-03-22T04:47:53.455Z,6.82
2017-03-22T04:48:52.753Z,6.80
2017-03-22T04:49:52.064Z,5.80
2017-03-22T04:50:52.050Z,6.20
2017-03-22T04:51:52.041Z,5.45
2017-03-22T04:52:51.300Z,5.45
2017-03-22T04:53:50.833Z,5.83
2017-03-22T04:54:50.092Z,6.47
2017-03-22T04:55:49.356Z,6.53
2017-03-22T04:56:48.609Z,5.97
2017-03-22T04:57:47.878Z,5.33
2017-03-22T04:58:47.115Z,5.55
2017-03-22T04:59:46.397Z,5.95
2017-03-22T05:00:45.666Z,5.63
2017-03-22T05:01:44.933Z,5.90
2017-03-22T05:02:44.226Z,6.10
2017-03-22T05:03:43.478Z,5.95
2017-03-22T05:04:42.737Z,5.43
2017-03-22T05:05:42.720Z,4.92
2017-03-22T05:06:41.968Z,5.13
2017-03-22T05:07:41.228Z,4.72
2017-03-22T05:08:40.464Z,5.78
2017-03-22T05:09:39.980Z,5.45
2017-03-22T05:10:39.238Z,4.85
2017-03-22T05:11:38.467Z,4.90
2017-03-22T05:12:37.706Z,4.77
2017-03-22T05:13:37.128Z,5.47
2017-03-22T05:14:36.397Z,4.65
2017-03-22T05:15:35.685Z,5.27
2017-03-22T05:16:35.060Z,4.27
2017-03-22T05:17:34.734Z,4.62
2017-03-22T05:18:33.967Z,4.47
2017-03-22T05:19:33.246Z,4.25
2017-03-22T05:20:32.487Z,4.50
2017-03-22T05:21:31.736Z,3.70
2017-03-22T05:22:30.975Z,4.05
2017-03-22T05:23:30.202Z,4.45
2017-03-22T05:24:29.465Z,3.80
2017-03-22T05:25:29.888Z,4.08
2017-03-22T05:26:29.487Z,3.98
2017-03-22T05:27:28.970Z,3.68
2017-03-22T05:28:28.369Z,3.30
2017-03-22T05:29:27.815Z,2.85
2017-03-22T05:30:27.278Z,2.87
2017-03-22T05:31:26.716Z,2.68
2017-03-22T05:32:26.094Z,2.90
2017-03-22T05:33:25.550Z,3.38
2017-03-22T05:34:24.991Z,2.48
2017-03-22T05:35:24.387Z,3.03
2017-03-22T05:36:23.844Z,2.35
2017-03-22T05:37:23.266Z,2.43
2017-03-22T05:38:22.730Z,2.38
2017-03-22T05:39:22.183Z,2.85
2017-03-22T05:40:21.750Z,2.48
2017-03-22T05:41:21.145Z,2.52
2017-03-22T05:42:20.578Z,2.30
2017-03-22T05:43:20.043Z,2.27
2017-03-22T05:44:19.986Z,3.10
2017-03-22T05:45:19.426Z,2.27
2017-03-22T05:46:18.831Z,2.30
2017-03-22T05:47:18.874Z,2.30
2017-03-22T05:48:19.562Z,2.57
2017-03-22T05:49:20.042Z,2.40
2017-03-22T05:50:20.662Z,2.62
2017-03-22T05:51:21.241Z,2.17
2017-03-22T05:52:21.897Z,2.60
2017-03-22T05:53:21.355Z,2.37
2017-03-22T05:54:21.675Z,2.55
2017-03-22T05:55:21.090Z,2.02
2017-03-22T05:56:20.579Z,2.45
2017-03-22T05:57:20.581Z,2.42
2017-03-22T05:58:20.222Z,2.57
2017-03-22T05:59:19.641Z,2.17
2017-03-22T06:00:19.407Z,2.07
2017-03-22T06:01:18.810Z,2.43
2017-03-22T06:02:18.191Z,2.78
2017-03-22T06:03:17.590Z,2.53
2017-03-22T06:04:16.995Z,2.80
2017-03-22T06:05:16.469Z,2.37
2017-03-22T06:06:15.978Z,2.70
2017-03-22T06:07:15.382Z,2.37
2017-03-22T06:08:14.795Z,2.35
2017-03-22T06:09:14.255Z,2.63
2017-03-22T06:10:13.750Z,2.63
2017-03-22T06:11:13.143Z,2.58
2017-03-22T06:12:12.619Z,2.60
2017-03-22T06:13:12.039Z,2.55
2017-03-22T06:14:11.506Z,4.25
2017-03-22T06:15:10.911Z,2.50
2017-03-22T06:16:10.410Z,2.22
2017-03-22T06:17:09.825Z,2.95
2017-03-22T06:18:09.498Z,2.33
2017-03-22T06:19:08.953Z,2.50
2017-03-22T06:20:08.389Z,2.22
2017-03-22T06:21:07.854Z,2.53
2017-03-22T06:22:07.275Z,2.70
2017-03-22T06:23:07.482Z,2.55
2017-03-22T06:24:06.946Z,2.35
2017-03-22T06:25:06.354Z,2.25
2017-03-22T06:26:05.762Z,2.65
2017-03-22T06:27:05.213Z,2.42
2017-03-22T06:28:04.661Z,2.57
2017-03-22T06:29:04.062Z,2.35
2017-03-22T06:30:03.497Z,2.38
2017-03-22T06:31:02.889Z,2.33
2017-03-22T06:32:02.321Z,2.37
2017-03-22T06:33:01.800Z,2.18
2017-03-22T06:34:01.259Z,2.63
2017-03-22T06:35:00.666Z,2.12
2017-03-22T06:36:00.140Z,2.42
2017-03-22T06:36:59.511Z,2.38
2017-03-22T06:37:58.939Z,2.32
2017-03-22T06:38:58.369Z,2.32
2017-03-22T06:39:57.774Z,2.67
2017-03-22T06:40:57.168Z,1.97
2017-03-22T06:41:56.608Z,1.93
2017-03-22T06:42:56.043Z,2.38
2017-03-22T06:43:55.452Z,2.60
2017-03-22T06:44:54.880Z,2.72
2017-03-22T06:45:54.286Z,2.05
2017-03-22T06:46:53.712Z,2.15
2017-03-22T06:47:53.461Z,2.02
2017-03-22T06:48:52.889Z,2.63
2017-03-22T06:49:52.359Z,2.00
2017-03-22T06:50:51.768Z,2.32
2017-03-22T06:51:51.159Z,1.78
2017-03-22T06:52:50.610Z,1.97
2017-03-22T06:53:50.046Z,1.88
2017-03-22T06:54:49.510Z,2.08
2017-03-22T06:55:49.300Z,2.35
2017-03-22T06:56:48.685Z,2.77
2017-03-22T06:57:48.078Z,2.12
2017-03-22T06:58:47.484Z,2.17
2017-03-22T06:59:46.911Z,2.17
2017-03-22T07:00:46.420Z,1.70
2017-03-22T07:01:45.854Z,2.17
2017-03-22T07:02:45.249Z,1.80
2017-03-22T07:03:44.638Z,2.12
2017-03-22T07:04:44.073Z,1.82
2017-03-22T07:05:43.743Z,1.58
2017-03-22T07:06:43.160Z,1.70
2017-03-22T07:07:42.620Z,1.70
2017-03-22T07:08:42.087Z,1.60
2017-03-22T07:09:41.490Z,1.67
2017-03-22T07:10:41.109Z,1.78
2017-03-22T07:11:41.286Z,1.75
2017-03-22T07:12:40.816Z,1.40
2017-03-22T07:13:40.264Z,1.37
2017-03-22T07:14:39.774Z,1.27
2017-03-22T07:15:39.182Z,1.40
2017-03-22T07:16:38.611Z,1.32
2017-03-22T07:17:38.075Z,1.23
2017-03-22T07:18:37.544Z,1.27
2017-03-22T07:19:36.980Z,1.07
2017-03-22T07:20:36.418Z,1.28
2017-03-22T07:21:35.830Z,1.08
2017-03-22T07:22:35.285Z,1.10
2017-03-22T07:23:34.966Z,1.10
2017-03-22T07:24:34.353Z,1.07
2017-03-22T07:25:33.817Z,1.30
2017-03-22T07:26:33.225Z,1.20
2017-03-22T07:27:32.759Z,1.12
2017-03-22T07:28:32.174Z,1.33
2017-03-22T07:29:31.854Z,1.33
2017-03-22T07:30:31.346Z,1.35
2017-03-22T07:31:30.766Z,1.26
2017-03-22T07:32:30.154Z,1.40
2017-03-22T07:33:29.603Z,3.48
2017-03-22T07:34:29.075Z,1.90
2017-03-22T07:35:28.499Z,1.60
2017-03-22T07:36:27.964Z,2.18
2017-03-22T07:37:27.379Z,1.87
2017-03-22T07:38:26.835Z,1.80
2017-03-22T07:39:26.291Z,2.12
2017-03-22T07:40:26.013Z,1.88
2017-03-22T07:41:25.527Z,2.27
2017-03-22T07:42:24.955Z,2.03
2017-03-22T07:43:24.361Z,1.88
2017-03-22T07:44:23.839Z,1.95
2017-03-22T07:45:23.265Z,1.75
2017-03-22T07:46:22.734Z,2.38
2017-03-22T07:47:22.450Z,2.32
2017-03-22T07:48:22.027Z,2.32
2017-03-22T07:49:21.443Z,2.03
2017-03-22T07:50:20.906Z,2.40
2017-03-22T07:51:21.122Z,2.48
2017-03-22T07:52:20.581Z,2.00
2017-03-22T07:53:20.086Z,2.00
2017-03-22T07:54:19.512Z,2.80
2017-03-22T07:55:19.685Z,2.55
2017-03-22T07:56:19.111Z,2.33
2017-03-22T07:57:18.538Z,2.30
2017-03-22T07:58:17.983Z,3.30
2017-03-22T07:59:17.423Z,2.88
2017-03-22T08:00:16.895Z,3.55
2017-03-22T08:01:16.342Z,3.50
2017-03-22T08:02:15.756Z,3.98
2017-03-22T08:03:15.177Z,3.77
2017-03-22T08:04:15.321Z,3.92
2017-03-22T08:05:14.996Z,3.55
2017-03-22T08:06:14.446Z,3.53
2017-03-22T08:07:13.898Z,3.30
2017-03-22T08:08:13.344Z,3.45
2017-03-22T08:09:12.765Z,3.45
2017-03-22T08:10:12.176Z,3.58
2017-03-22T08:11:11.661Z,3.50
2017-03-22T08:12:11.146Z,3.47
2017-03-22T08:13:10.547Z,3.35
2017-03-22T08:14:09.982Z,3.17
2017-03-22T08:15:09.381Z,3.37
2017-03-22T08:16:08.834Z,3.25
2017-03-22T08:17:08.546Z,3.33
2017-03-22T08:18:07.987Z,2.93
2017-03-22T08:19:07.384Z,2.65
2017-03-22T08:20:06.864Z,3.33
2017-03-22T08:21:06.318Z,2.98
2017-03-22T08:22:05.765Z,2.30
2017-03-22T08:23:05.317Z,3.03
2017-03-22T08:24:04.808Z,2.50
2017-03-22T08:25:05.003Z,3.02
2017-03-22T08:26:05.225Z,2.27
2017-03-22T08:27:04.673Z,3.05
2017-03-22T08:28:04.104Z,2.00
2017-03-22T08:29:03.623Z,2.58
2017-03-22T08:30:03.025Z,2.22
2017-03-22T08:31:02.487Z,2.68
2017-03-22T08:32:01.949Z,2.25
2017-03-22T08:33:01.387Z,2.22
2017-03-22T08:34:00.841Z,2.25
2017-03-22T08:35:00.592Z,2.32
2017-03-22T08:36:00.074Z,2.57
2017-03-22T08:36:59.519Z,2.25
2017-03-22T08:37:58.948Z,2.53
2017-03-22T08:38:59.078Z,2.08
2017-03-22T08:39:58.511Z,2.07
2017-03-22T08:40:57.898Z,2.32
2017-03-22T08:41:57.317Z,2.23
2017-03-22T08:42:56.709Z,2.47
2017-03-22T08:43:56.145Z,2.52
2017-03-22T08:44:55.593Z,2.28
2017-03-22T08:45:55.023Z,2.50
2017-03-22T08:46:54.673Z,1.98
2017-03-22T08:47:54.126Z,2.28
2017-03-22T08:48:53.698Z,2.13
2017-03-22T08:49:53.121Z,2.63
2017-03-22T08:50:52.549Z,2.30
2017-03-22T08:51:51.937Z,2.27
2017-03-22T08:52:51.383Z,2.07
2017-03-22T08:53:50.783Z,2.42
2017-03-22T08:54:50.902Z,2.17
2017-03-22T08:55:50.342Z,2.17
2017-03-22T08:56:49.755Z,2.85
2017-03-22T08:57:49.749Z,2.00
2017-03-22T08:58:49.235Z,2.08
2017-03-22T08:59:48.997Z,2.22
2017-03-22T09:00:48.674Z,2.52
2017-03-22T09:01:48.103Z,2.50
2017-03-22T09:02:47.536Z,1.92
2017-03-22T09:03:47.034Z,1.93
2017-03-22T09:04:46.415Z,2.13
2017-03-22T09:05:45.841Z,2.23
2017-03-22T09:06:45.261Z,2.22
2017-03-22T09:07:44.671Z,2.17
2017-03-22T09:08:44.089Z,2.27
2017-03-22T09:09:43.843Z,2.52
2017-03-22T09:10:43.290Z,2.43
2017-03-22T09:11:42.732Z,2.70
2017-03-22T09:12:42.323Z,2.00
2017-03-22T09:13:41.760Z,2.30
2017-03-22T09:14:41.171Z,2.18
2017-03-22T09:15:42.639Z,2.32
2017-03-22T09:16:42.060Z,2.25
2017-03-22T09:17:41.490Z,2.25
2017-03-22T09:18:40.929Z,2.58
2017-03-22T09:19:40.411Z,2.93
2017-03-22T09:20:39.890Z,3.10
2017-03-22T09:21:39.410Z,2.12
2017-03-22T09:22:38.882Z,2.52
2017-03-22T09:23:38.314Z,2.50
2017-03-22T09:24:37.751Z,2.45
2017-03-22T09:25:37.222Z,2.38
2017-03-22T09:26:36.659Z,2.43
2017-03-22T09:27:36.082Z,2.62
2017-03-22T09:28:35.478Z,2.40
2017-03-22T09:29:34.874Z,2.67
2017-03-22T09:30:34.344Z,2.25
2017-03-22T09:31:34.546Z,3.10
2017-03-22T09:32:34.018Z,2.73
2017-03-22T09:33:33.783Z,2.88
2017-03-22T09:34:33.237Z,2.62
2017-03-22T09:35:33.922Z,2.52
2017-03-22T09:36:33.339Z,3.05
2017-03-22T09:37:32.774Z,2.28
2017-03-22T09:38:34.127Z,2.65
2017-03-22T09:39:33.582Z,2.98
2017-03-22T09:40:33.056Z,2.58
2017-03-22T09:41:32.573Z,2.78
2017-03-22T09:42:32.029Z,2.88
2017-03-22T09:43:31.463Z,2.90
2017-03-22T09:44:31.341Z,2.73
2017-03-22T09:45:30.753Z,2.83
2017-03-22T09:46:30.190Z,2.62
2017-03-22T09:47:29.627Z,2.73
2017-03-22T09:48:29.068Z,2.43
2017-03-22T09:49:28.504Z,2.48
2017-03-22T09:50:28.191Z,2.97
2017-03-22T09:51:27.623Z,2.62
2017-03-22T09:52:27.034Z,3.20
2017-03-22T09:53:26.486Z,2.98
2017-03-22T09:54:26.364Z,2.60
2017-03-22T09:55:25.800Z,3.12
2017-03-22T09:56:25.246Z,2.88
2017-03-22T09:57:24.677Z,3.15
2017-03-22T09:58:24.129Z,3.20
2017-03-22T09:59:24.270Z,3.13
2017-03-22T10:00:23.726Z,2.98
2017-03-22T10:01:23.914Z,3.78
2017-03-22T10:02:23.450Z,3.48
2017-03-22T10:03:22.955Z,2.98
2017-03-22T10:04:22.381Z,3.40
2017-03-22T10:05:21.874Z,3.07
2017-03-22T10:06:21.347Z,3.52
2017-03-22T10:07:20.970Z,3.02
2017-03-22T10:08:20.433Z,2.87
2017-03-22T10:09:19.861Z,3.43
2017-03-22T10:10:19.238Z,3.67
2017-03-22T10:11:18.719Z,3.98
2017-03-22T10:12:18.136Z,3.58
2017-03-22T10:13:17.551Z,3.50
2017-03-22T10:14:17.302Z,3.12
2017-03-22T10:15:16.725Z,3.33
2017-03-22T10:16:16.132Z,3.85
2017-03-22T10:17:15.523Z,3.57
2017-03-22T10:18:14.919Z,2.95
2017-03-22T10:19:14.298Z,3.62
2017-03-22T10:20:13.691Z,4.12
2017-03-22T10:21:17.394Z,3.42
2017-03-22T10:22:17.983Z,3.80
2017-03-22T10:23:17.534Z,2.92
2017-03-22T10:24:16.959Z,3.83
2017-03-22T10:25:16.897Z,3.22
2017-03-22T10:26:16.301Z,3.40
2017-03-22T10:27:16.094Z,3.38
2017-03-22T10:28:16.306Z,3.07
2017-03-22T10:29:15.776Z,3.15
2017-03-22T10:30:15.259Z,3.32
2017-03-22T10:31:14.687Z,3.37
2017-03-22T10:32:14.194Z,3.88
2017-03-22T10:33:14.084Z,3.83
2017-03-22T10:34:13.698Z,3.20
2017-03-22T10:35:13.081Z,3.72
2017-03-22T10:36:12.574Z,3.78
2017-03-22T10:37:12.034Z,3.87
2017-03-22T10:38:11.889Z,3.15
2017-03-22T10:39:11.328Z,3.18
2017-03-22T10:40:10.743Z,3.13
2017-03-22T10:41:10.158Z,3.80
2017-03-22T10:42:09.665Z,4.23
2017-03-22T10:43:09.103Z,4.67
2017-03-22T10:44:08.604Z,4.48
2017-03-22T10:45:08.112Z,3.87
2017-03-22T10:46:07.580Z,3.60
2017-03-22T10:47:07.018Z,3.80
2017-03-22T10:48:06.526Z,3.60
2017-03-22T10:49:06.077Z,3.22
2017-03-22T10:50:05.505Z,4.03
2017-03-22T10:51:04.967Z,3.28
2017-03-22T10:52:04.360Z,3.88
2017-03-22T10:53:04.164Z,3.70
2017-03-22T10:54:03.646Z,4.05
2017-03-22T10:55:03.402Z,3.60
2017-03-22T10:56:02.872Z,3.77
2017-03-22T10:57:02.365Z,3.33
2017-03-22T10:58:01.857Z,3.53
2017-03-22T10:59:01.255Z,3.60
2017-03-22T11:00:00.701Z,3.25
2017-03-22T11:01:00.127Z,3.90
2017-03-22T11:01:59.549Z,3.77
2017-03-22T11:02:59.003Z,3.30
2017-03-22T11:03:58.429Z,3.97
2017-03-22T11:04:57.911Z,3.52
2017-03-22T11:05:59.388Z,3.83
2017-03-22T11:06:58.874Z,4.15
2017-03-22T11:07:58.310Z,3.82
2017-03-22T11:08:57.735Z,4.20
2017-03-22T11:09:57.572Z,3.43
2017-03-22T11:10:57.140Z,3.37
2017-03-22T11:11:56.778Z,3.87
2017-03-22T11:12:56.303Z,3.77
2017-03-22T11:14:02.589Z,3.58
2017-03-22T11:15:02.110Z,4.12
2017-03-22T11:16:01.749Z,3.20
2017-03-22T11:17:01.723Z,3.65
2017-03-22T11:18:02.082Z,4.12
2017-03-22T11:19:01.774Z,3.37
2017-03-22T11:20:01.363Z,3.58
2017-03-22T11:21:00.908Z,3.63
2017-03-22T11:22:01.392Z,3.55
2017-03-22T11:23:01.696Z,3.40
2017-03-22T11:24:01.278Z,3.72
2017-03-22T11:25:00.700Z,3.92
2017-03-22T11:26:00.217Z,3.47
2017-03-22T11:26:59.885Z,4.08
2017-03-22T11:27:59.969Z,3.97
2017-03-22T11:28:59.503Z,3.62
2017-03-22T11:29:59.106Z,3.82
2017-03-22T11:30:59.406Z,3.92
2017-03-22T11:31:59.003Z,4.10
2017-03-22T11:32:58.571Z,3.60
2017-03-22T11:33:58.122Z,4.30
2017-03-22T11:34:57.841Z,4.07
2017-03-22T11:35:57.520Z,3.75
2017-03-22T11:36:57.082Z,4.13
2017-03-22T11:37:57.378Z,4.30
2017-03-22T11:38:56.993Z,4.48
2017-03-22T11:39:56.714Z,4.22
2017-03-22T11:41:00.679Z,3.75
2017-03-22T11:42:00.489Z,4.38
2017-03-22T11:42:59.968Z,3.73
2017-03-22T11:43:59.371Z,4.93
2017-03-22T11:44:58.853Z,4.30
2017-03-22T11:45:58.331Z,4.37
2017-03-22T11:46:57.746Z,4.18
2017-03-22T11:47:57.182Z,4.73
2017-03-22T11:48:56.582Z,4.20
2017-03-22T11:49:56.738Z,4.00
2017-03-22T11:50:56.181Z,3.92
2017-03-22T11:51:56.326Z,4.10
2017-03-22T11:52:55.737Z,4.87
2017-03-22T11:53:55.179Z,4.15
2017-03-22T11:54:54.590Z,4.25
2017-03-22T11:55:54.016Z,4.20
2017-03-22T11:56:53.502Z,4.53
2017-03-22T11:57:52.947Z,4.72
2017-03-22T11:58:52.362Z,4.45
2017-03-22T11:59:51.744Z,4.53
2017-03-22T12:00:51.144Z,4.73
2017-03-22T12:01:50.597Z,5.00
2017-03-22T12:02:50.364Z,4.20
2017-03-22T12:03:50.530Z,4.68
2017-03-22T12:04:49.937Z,4.07
2017-03-22T12:05:49.342Z,4.28
2017-03-22T12:06:48.787Z,3.92
2017-03-22T12:07:48.257Z,5.05
2017-03-22T12:08:47.672Z,4.32
2017-03-22T12:09:47.118Z,4.97
2017-03-22T12:10:46.553Z,4.63
2017-03-22T12:11:45.995Z,4.42
2017-03-22T12:12:45.450Z,5.40
2017-03-22T12:13:44.883Z,4.40
2017-03-22T12:14:44.530Z,4.58
2017-03-22T12:15:44.129Z,4.82
2017-03-22T12:16:43.583Z,4.97
2017-03-22T12:17:43.028Z,4.80
2017-03-22T12:18:42.486Z,5.58
2017-03-22T12:19:42.082Z,4.82
2017-03-22T12:20:41.565Z,4.90
2017-03-22T12:21:42.292Z,4.83
2017-03-22T12:22:41.771Z,4.75
2017-03-22T12:23:41.138Z,5.47
2017-03-22T12:24:40.585Z,5.08
2017-03-22T12:25:40.057Z,4.68
2017-03-22T12:26:39.772Z,5.63
2017-03-22T12:27:39.168Z,5.45
2017-03-22T12:28:38.616Z,5.42
2017-03-22T12:29:38.038Z,5.52
2017-03-22T12:30:37.548Z,5.78
2017-03-22T12:31:36.998Z,6.33
2017-03-22T12:32:36.468Z,5.95
2017-03-22T12:33:35.906Z,6.17
2017-03-22T12:34:35.413Z,6.25
2017-03-22T12:35:34.903Z,5.37
2017-03-22T12:36:34.330Z,6.03
2017-03-22T12:37:33.793Z,5.82
2017-03-22T12:38:34.334Z,6.57
2017-03-22T12:39:33.782Z,6.52
2017-03-22T12:40:33.234Z,6.77
2017-03-22T12:41:32.670Z,6.93
2017-03-22T12:42:32.085Z,6.88
2017-03-22T12:43:31.502Z,7.05
2017-03-22T12:44:30.942Z,5.57
2017-03-22T12:45:30.377Z,6.52
2017-03-22T12:46:29.849Z,5.40
2017-03-22T12:47:29.290Z,5.03
2017-03-22T12:48:28.730Z,6.33
2017-03-22T12:49:28.130Z,5.85
2017-03-22T12:50:36.966Z,6.08
2017-03-22T12:51:36.414Z,6.45
2017-03-22T12:52:40.570Z,6.30
2017-03-22T12:53:41.048Z,6.15
2017-03-22T12:54:40.478Z,6.03
2017-03-22T12:55:39.922Z,6.92
2017-03-22T12:56:39.350Z,5.67
2017-03-22T12:57:38.773Z,5.95
2017-03-22T12:58:38.259Z,6.03
2017-03-22T12:59:37.714Z,5.78
2017-03-22T13:00:37.199Z,5.33
2017-03-22T13:01:36.709Z,6.62
2017-03-22T13:02:36.113Z,6.38
2017-03-22T13:03:44.481Z,5.73
2017-03-22T13:04:43.948Z,5.65
2017-03-22T13:05:43.450Z,6.00
2017-03-22T13:06:43.345Z,6.40
2017-03-22T13:07:42.769Z,6.45
2017-03-22T13:08:42.236Z,5.97
2017-03-22T13:09:41.702Z,5.85
2017-03-22T13:10:41.846Z,6.02
2017-03-22T13:11:41.222Z,6.20